Time;durP1;ratioP1;P1;durP2;ratioP2;P2;SDS_P1;SDS_P2;PMS_P1;PMS_P2;Temp;Humidity;BMP_temperature;BMP_pressure;BME280_temperature;BME280_humidity;BME280_pressure;Samples;Min_cycle;Max_cycle;Signal;HPM_P1;HPM_P2
2021/11/24 00:01:59;;;;;;;;;21.67;20.00;;;;;;;;5086751;28;47611;-85
2021/11/24 00:04:25;;;;;;;;;19.50;18.00;;;;;;;;5069818;28;45304;-85
2021/11/24 00:06:50;;;;;;;;;26.33;23.00;;;;;;;;5069028;28;45334;-85
2021/11/24 00:09:15;;;;;;;;;24.67;22.33;;;;;;;;5073334;28;45200;-85
2021/11/24 00:11:40;;;;;;;;;22.33;21.00;;;;;;;;5088497;28;47144;-85
2021/11/24 00:14:05;;;;;;;;;25.00;20.00;;;;;;;;5090131;28;45199;-85
2021/11/24 00:16:31;;;;;;;;;21.33;20.33;;;;;;;;5069376;28;45074;-85
2021/11/24 00:18:56;;;;;;;;;20.67;18.67;;;;;;;;5069881;28;45168;-85
2021/11/24 00:21:21;;;;;;;;;17.33;16.00;;;;;;;;5089099;27;47637;-85
2021/11/24 00:23:47;;;;;;;;;19.33;19.33;;;;;;;;5081358;27;45105;-85
2021/11/24 00:26:12;;;;;;;;;19.75;17.75;;;;;;;;5076475;28;45133;-85
2021/11/24 00:28:37;;;;;;;;;21.25;20.25;;;;;;;;5089084;27;44949;-85
2021/11/24 00:31:03;;;;;;;;;22.67;22.00;;;;;;;;5078898;27;47331;-85
2021/11/24 00:33:28;;;;;;;;;22.33;20.00;;;;;;;;5074969;28;45132;-85
2021/11/24 00:35:54;;;;;;;;;20.25;20.00;;;;;;;;5071637;28;45443;-84
2021/11/24 00:38:19;;;;;;;;;19.00;18.50;;;;;;;;5067547;28;45674;-85
2021/11/24 00:40:44;;;;;;;;;23.00;21.00;;;;;;;;5074100;28;47164;-85
2021/11/24 00:43:09;;;;;;;;;20.00;19.67;;;;;;;;5069478;28;45095;-85
2021/11/24 00:45:36;;;;;;;;;25.67;20.67;;;;;;;;5077925;28;45327;-85
2021/11/24 00:48:01;;;;;;;;;21.50;20.50;;;;;;;;5089749;27;45752;-86
2021/11/24 00:50:26;;;;;;;;;17.00;16.33;;;;;;;;5084460;28;47516;-86
2021/11/24 00:52:52;;;;;;;;;23.33;20.33;;;;;;;;5068653;28;45234;-85
2021/11/24 00:55:17;;;;;;;;;20.50;20.25;;;;;;;;5068866;28;44951;-85
2021/11/24 00:57:42;;;;;;;;;21.75;19.25;;;;;;;;5069290;28;45203;-85
2021/11/24 01:00:08;;;;;;;;;24.67;20.67;;;;;;;;5077518;28;47316;-85
2021/11/24 01:02:33;;;;;;;;;20.00;17.75;;;;;;;;5082106;28;45157;-85
2021/11/24 01:04:59;;;;;;;;;25.00;22.67;;;;;;;;5087766;27;45405;-85
2021/11/24 01:07:24;;;;;;;;;19.67;17.33;;;;;;;;5087989;27;45249;-86
2021/11/24 01:09:51;;;;;;;;;22.67;20.67;;;;;;;;5085917;28;47630;-85
2021/11/24 01:12:18;;;;;;;;;23.50;20.00;;;;;;;;5067393;28;45079;-85
2021/11/24 01:14:43;;;;;;;;;19.75;18.25;;;;;;;;5084183;28;45152;-85
2021/11/24 01:17:08;;;;;;;;;22.67;21.33;;;;;;;;5085536;27;45258;-85
2021/11/24 01:19:33;;;;;;;;;22.00;20.00;;;;;;;;5083036;28;47517;-85
2021/11/24 01:21:58;;;;;;;;;19.33;17.00;;;;;;;;5083303;27;45000;-86
2021/11/24 01:24:24;;;;;;;;;25.33;21.67;;;;;;;;5069660;28;45478;-85
2021/11/24 01:26:49;;;;;;;;;25.67;21.67;;;;;;;;5071918;28;45298;-85
2021/11/24 01:29:14;;;;;;;;;21.67;21.00;;;;;;;;5087819;28;47515;-85
2021/11/24 01:31:39;;;;;;;;;24.00;22.33;;;;;;;;5085091;27;45140;-85
2021/11/24 01:34:05;;;;;;;;;24.33;22.67;;;;;;;;5081660;28;45258;-85
2021/11/24 01:36:30;;;;;;;;;23.67;20.67;;;;;;;;5067910;28;45249;-85
2021/11/24 01:38:55;;;;;;;;;24.00;21.00;;;;;;;;5068351;28;47437;-85
2021/11/24 01:41:20;;;;;;;;;25.00;21.00;;;;;;;;5069560;28;45041;-85
2021/11/24 01:43:45;;;;;;;;;21.67;20.67;;;;;;;;5068354;28;45061;-85
2021/11/24 01:46:11;;;;;;;;;21.00;20.67;;;;;;;;5082502;28;45203;-85
2021/11/24 01:48:36;;;;;;;;;21.50;19.00;;;;;;;;5068364;28;47144;-85
2021/11/24 01:51:01;;;;;;;;;24.67;22.67;;;;;;;;5082879;28;45731;-85
2021/11/24 01:53:28;;;;;;;;;21.67;19.33;;;;;;;;5087896;28;45095;-85
2021/11/24 01:55:55;;;;;;;;;18.50;18.50;;;;;;;;5087895;28;45299;-85
2021/11/24 01:58:21;;;;;;;;;23.75;20.75;;;;;;;;5086985;28;47750;-84
2021/11/24 02:00:46;;;;;;;;;22.25;22.00;;;;;;;;5071764;28;45474;-84
2021/11/24 02:03:11;;;;;;;;;23.00;19.67;;;;;;;;5087116;28;45099;-85
2021/11/24 02:05:36;;;;;;;;;19.33;18.00;;;;;;;;5087811;28;45435;-85
2021/11/24 02:08:02;;;;;;;;;21.33;19.67;;;;;;;;5087326;28;47731;-85
2021/11/24 02:10:27;;;;;;;;;21.75;20.75;;;;;;;;5084024;27;45645;-85
2021/11/24 02:12:52;;;;;;;;;23.33;20.67;;;;;;;;5087993;27;45192;-85
2021/11/24 02:15:18;;;;;;;;;21.00;20.75;;;;;;;;5087591;28;45210;-85
2021/11/24 02:17:44;;;;;;;;;19.75;19.50;;;;;;;;5087430;27;47788;-85
2021/11/24 02:20:11;;;;;;;;;22.25;21.50;;;;;;;;5071923;28;45180;-85
2021/11/24 02:22:37;;;;;;;;;26.75;24.50;;;;;;;;5082478;28;45283;-85
2021/11/24 02:25:02;;;;;;;;;26.33;21.67;;;;;;;;5074736;28;45049;-85
2021/11/24 02:27:27;;;;;;;;;25.50;24.00;;;;;;;;5070558;28;47368;-85
2021/11/24 02:29:53;;;;;;;;;24.67;22.33;;;;;;;;5073683;28;45343;-85
2021/11/24 02:32:18;;;;;;;;;25.33;19.67;;;;;;;;5068826;28;45116;-85
2021/11/24 02:34:43;;;;;;;;;21.33;21.00;;;;;;;;5083961;28;44977;-84
2021/11/24 02:37:08;;;;;;;;;19.67;17.67;;;;;;;;5086783;28;46990;-84
2021/11/24 02:39:34;;;;;;;;;20.67;18.67;;;;;;;;5076752;28;45164;-85
2021/11/24 02:41:59;;;;;;;;;20.67;19.67;;;;;;;;5069018;28;45103;-85
2021/11/24 02:44:28;;;;;;;;;25.67;19.33;;;;;;;;5067354;28;45597;-85
2021/11/24 02:46:55;;;;;;;;;18.00;16.75;;;;;;;;5076363;28;47312;-85
2021/11/24 02:49:21;;;;;;;;;20.00;18.75;;;;;;;;5077509;28;45453;-85
2021/11/24 02:51:46;;;;;;;;;21.25;19.50;;;;;;;;5087919;28;45323;-85
2021/11/24 02:54:12;;;;;;;;;25.50;19.75;;;;;;;;5076468;28;45009;-85
2021/11/24 02:56:39;;;;;;;;;20.50;17.50;;;;;;;;5066366;28;47258;-84
2021/11/24 02:59:05;;;;;;;;;19.75;19.50;;;;;;;;5073809;28;45440;-85
2021/11/24 03:01:30;;;;;;;;;19.00;17.50;;;;;;;;5086907;27;45194;-85
2021/11/24 03:03:55;;;;;;;;;20.00;19.00;;;;;;;;5075884;28;45575;-85
2021/11/24 03:06:20;;;;;;;;;20.67;19.00;;;;;;;;5086240;27;47419;-84
2021/11/24 03:08:46;;;;;;;;;21.00;19.00;;;;;;;;5083383;27;45236;-84
2021/11/24 03:11:11;;;;;;;;;23.67;20.67;;;;;;;;5067391;28;45120;-85
2021/11/24 03:13:36;;;;;;;;;24.67;20.33;;;;;;;;5066689;28;45487;-85
2021/11/24 03:16:01;;;;;;;;;25.67;20.00;;;;;;;;5071110;28;45157;-85
2021/11/24 03:18:26;;;;;;;;;20.00;18.33;;;;;;;;5084437;28;45264;-86
2021/11/24 03:20:52;;;;;;;;;22.33;20.00;;;;;;;;5065661;28;45196;-85
2021/11/24 03:23:17;;;;;;;;;24.00;20.00;;;;;;;;5066389;28;45248;-85
2021/11/24 03:25:42;;;;;;;;;25.67;19.67;;;;;;;;5066518;28;47156;-85
2021/11/24 03:28:07;;;;;;;;;20.25;15.75;;;;;;;;5066764;28;45172;-85
2021/11/24 03:30:33;;;;;;;;;26.33;22.00;;;;;;;;5068462;28;45226;-84
2021/11/24 03:32:59;;;;;;;;;22.75;20.00;;;;;;;;5066467;28;45080;-85
2021/11/24 03:35:25;;;;;;;;;23.75;22.00;;;;;;;;5074447;28;47213;-85
2021/11/24 03:37:52;;;;;;;;;23.25;22.00;;;;;;;;5088904;27;45201;-85
2021/11/24 03:40:17;;;;;;;;;25.75;23.50;;;;;;;;5088052;28;45263;-85
2021/11/24 03:42:46;;;;;;;;;24.25;21.25;;;;;;;;5089548;27;44951;-85
2021/11/24 03:45:12;;;;;;;;;27.25;22.50;;;;;;;;5090730;28;47765;-85
2021/11/24 03:47:37;;;;;;;;;23.00;21.00;;;;;;;;5071103;28;45398;-85
2021/11/24 03:50:03;;;;;;;;;25.00;21.00;;;;;;;;5086226;27;45141;-85
2021/11/24 03:52:29;;;;;;;;;25.00;22.00;;;;;;;;5069509;28;45257;-85
2021/11/24 03:54:54;;;;;;;;;24.33;17.33;;;;;;;;5069527;28;47392;-85
2021/11/24 03:57:19;;;;;;;;;24.33;22.00;;;;;;;;5090038;27;45163;-85
2021/11/24 03:59:44;;;;;;;;;27.67;21.67;;;;;;;;5078287;28;45201;-85
2021/11/24 04:02:09;;;;;;;;;25.67;22.00;;;;;;;;5078862;27;45271;-85
2021/11/24 04:04:38;;;;;;;;;17.67;16.33;;;;;;;;5068720;28;47319;-85
2021/11/24 04:07:03;;;;;;;;;22.50;20.75;;;;;;;;5069596;28;45266;-85
2021/11/24 04:09:28;;;;;;;;;24.00;20.67;;;;;;;;5077497;28;45115;-85
2021/11/24 04:11:53;;;;;;;;;25.67;22.33;;;;;;;;5090170;27;45026;-85
2021/11/24 04:14:19;;;;;;;;;25.33;19.00;;;;;;;;5089666;27;47126;-85
2021/11/24 04:16:44;;;;;;;;;19.00;16.67;;;;;;;;5089412;27;45077;-85
2021/11/24 04:19:09;;;;;;;;;11.67;11.67;;;;;;;;5087050;28;45219;-84
2021/11/24 04:21:34;;;;;;;;;20.00;19.00;;;;;;;;5089006;27;45192;-85
2021/11/24 04:24:00;;;;;;;;;19.33;16.33;;;;;;;;5090099;27;47055;-85
2021/11/24 04:26:25;;;;;;;;;22.50;21.00;;;;;;;;5089561;28;45461;-85
2021/11/24 04:28:50;;;;;;;;;20.00;18.75;;;;;;;;5073186;28;45145;-85
2021/11/24 04:31:15;;;;;;;;;15.67;13.67;;;;;;;;5089579;27;45990;-85
2021/11/24 04:33:41;;;;;;;;;22.33;20.00;;;;;;;;5079951;27;47069;-84
2021/11/24 04:36:07;;;;;;;;;21.50;19.25;;;;;;;;5086109;28;45187;-85
2021/11/24 04:38:33;;;;;;;;;24.00;19.50;;;;;;;;5089433;27;45247;-84
2021/11/24 04:40:58;;;;;;;;;20.00;19.00;;;;;;;;5076007;28;45131;-84
2021/11/24 04:43:28;;;;;;;;;24.00;18.67;;;;;;;;5081833;27;47419;-85
2021/11/24 04:45:54;;;;;;;;;21.00;19.50;;;;;;;;5069542;28;45211;-85
2021/11/24 04:48:19;;;;;;;;;23.25;20.00;;;;;;;;5072475;28;45081;-85
2021/11/24 04:50:44;;;;;;;;;25.33;23.00;;;;;;;;5086545;27;45263;-85
2021/11/24 04:53:09;;;;;;;;;21.50;20.00;;;;;;;;5089305;28;47452;-85
2021/11/24 04:55:35;;;;;;;;;26.00;22.00;;;;;;;;5080716;28;45143;-85
2021/11/24 04:58:00;;;;;;;;;25.00;20.00;;;;;;;;5071996;28;45071;-86
2021/11/24 05:00:25;;;;;;;;;27.75;23.50;;;;;;;;5073886;28;45337;-85
2021/11/24 05:02:52;;;;;;;;;28.00;20.67;;;;;;;;5069136;28;47627;-85
2021/11/24 05:05:19;;;;;;;;;24.00;21.50;;;;;;;;5088820;28;45509;-85
2021/11/24 05:07:45;;;;;;;;;25.00;24.50;;;;;;;;5071592;28;45056;-84
2021/11/24 05:10:10;;;;;;;;;27.67;24.00;;;;;;;;5081119;28;45222;-85
2021/11/24 05:12:35;;;;;;;;;23.25;20.50;;;;;;;;5088016;28;46986;-84
2021/11/24 05:15:02;;;;;;;;;22.00;20.50;;;;;;;;5088660;28;44988;-85
2021/11/24 05:17:28;;;;;;;;;24.50;21.00;;;;;;;;5089214;28;45079;-85
2021/11/24 05:19:54;;;;;;;;;24.50;21.25;;;;;;;;5073758;28;45192;-85
2021/11/24 05:22:20;;;;;;;;;24.75;22.25;;;;;;;;5068102;28;47062;-85
2021/11/24 05:24:45;;;;;;;;;29.75;27.25;;;;;;;;5068307;28;45367;-85
2021/11/24 05:27:11;;;;;;;;;27.00;22.00;;;;;;;;5068128;28;45090;-84
2021/11/24 05:29:36;;;;;;;;;26.67;24.00;;;;;;;;5074424;28;45233;-84
2021/11/24 05:32:01;;;;;;;;;29.00;22.00;;;;;;;;5088829;27;47287;-85
2021/11/24 05:34:26;;;;;;;;;30.50;27.25;;;;;;;;5072984;28;45203;-85
2021/11/24 05:36:51;;;;;;;;;26.67;24.00;;;;;;;;5066507;28;45118;-85
2021/11/24 05:39:17;;;;;;;;;25.67;21.67;;;;;;;;5074242;28;45245;-84
2021/11/24 05:41:42;;;;;;;;;27.67;23.67;;;;;;;;5070195;28;47529;-85
2021/11/24 05:44:26;;;;;;;;;30.00;23.25;;;;;;;;5070131;28;44803;-84
2021/11/24 05:46:56;;;;;;;;;29.50;24.75;;;;;;;;5088285;28;45260;-85
2021/11/24 05:49:21;;;;;;;;;24.50;20.75;;;;;;;;5077106;28;45129;-85
2021/11/24 05:51:47;;;;;;;;;25.75;24.75;;;;;;;;5086145;28;47101;-85
2021/11/24 05:54:12;;;;;;;;;30.25;25.25;;;;;;;;5090067;27;45118;-85
2021/11/24 05:56:38;;;;;;;;;25.67;21.67;;;;;;;;5088992;27;45276;-85
2021/11/24 05:59:08;;;;;;;;;24.75;20.75;;;;;;;;5083550;27;45339;-84
2021/11/24 06:01:33;;;;;;;;;19.25;17.50;;;;;;;;5078133;28;47211;-85
2021/11/24 06:03:58;;;;;;;;;23.50;21.00;;;;;;;;5070874;28;45358;-85
2021/11/24 06:06:24;;;;;;;;;22.00;17.33;;;;;;;;5069428;28;45253;-85
2021/11/24 06:08:49;;;;;;;;;30.33;25.00;;;;;;;;5088319;28;45125;-85
2021/11/24 06:11:14;;;;;;;;;27.00;22.33;;;;;;;;5067247;28;47514;-85
2021/11/24 06:13:39;;;;;;;;;27.00;23.00;;;;;;;;5068454;28;45123;-85
2021/11/24 06:16:05;;;;;;;;;20.67;19.00;;;;;;;;5081099;28;45222;-85
2021/11/24 06:18:30;;;;;;;;;23.00;19.33;;;;;;;;5086188;28;45160;-85
2021/11/24 06:20:55;;;;;;;;;21.75;20.25;;;;;;;;5081180;27;47577;-85
2021/11/24 06:23:20;;;;;;;;;29.33;22.00;;;;;;;;5066067;28;45474;-85
2021/11/24 06:25:46;;;;;;;;;29.00;22.00;;;;;;;;5068238;28;45478;-85
2021/11/24 06:28:12;;;;;;;;;21.33;20.33;;;;;;;;5067990;28;45203;-84
2021/11/24 06:30:38;;;;;;;;;23.25;20.00;;;;;;;;5072835;27;47349;-85
2021/11/24 06:33:03;;;;;;;;;25.00;22.25;;;;;;;;5061420;27;45453;-84
2021/11/24 06:35:29;;;;;;;;;21.25;20.25;;;;;;;;5072672;27;45323;-85
2021/11/24 06:37:54;;;;;;;;;26.00;23.33;;;;;;;;5070014;28;45510;-85
2021/11/24 06:40:19;;;;;;;;;25.00;22.00;;;;;;;;5064363;27;46374;-85
2021/11/24 06:42:44;;;;;;;;;25.67;23.33;;;;;;;;5064195;28;45508;-85
2021/11/24 06:45:10;;;;;;;;;25.33;23.00;;;;;;;;5069299;27;45762;-85
2021/11/24 06:47:38;;;;;;;;;23.75;21.75;;;;;;;;5075220;28;45529;-84
2021/11/24 06:50:03;;;;;;;;;24.75;20.50;;;;;;;;5071385;28;48119;-85
2021/11/24 06:52:29;;;;;;;;;26.25;24.00;;;;;;;;5072161;28;45688;-85
2021/11/24 06:54:54;;;;;;;;;23.67;22.00;;;;;;;;5074255;28;44998;-85
2021/11/24 06:57:19;;;;;;;;;30.00;26.33;;;;;;;;5080865;28;45321;-85
2021/11/24 06:59:44;;;;;;;;;24.00;24.00;;;;;;;;5082094;28;47365;-85
2021/11/24 07:02:10;;;;;;;;;24.33;20.33;;;;;;;;5063819;28;45166;-85
2021/11/24 07:04:35;;;;;;;;;25.50;22.25;;;;;;;;5066781;28;45187;-84
2021/11/24 07:07:00;;;;;;;;;23.33;21.00;;;;;;;;5068436;28;45175;-85
2021/11/24 07:09:27;;;;;;;;;25.33;23.67;;;;;;;;5087138;27;47442;-85
2021/11/24 07:11:52;;;;;;;;;28.00;25.50;;;;;;;;5088212;27;45023;-85
2021/11/24 07:14:17;;;;;;;;;27.33;23.67;;;;;;;;5086859;27;44933;-85
2021/11/24 07:16:42;;;;;;;;;26.33;24.00;;;;;;;;5086308;28;45020;-85
2021/11/24 07:19:08;;;;;;;;;28.00;25.00;;;;;;;;5074877;28;45841;-84
2021/11/24 07:21:33;;;;;;;;;26.00;21.00;;;;;;;;5086114;28;45052;-85
2021/11/24 07:23:58;;;;;;;;;22.00;19.75;;;;;;;;5087130;28;45396;-86
2021/11/24 07:26:24;;;;;;;;;24.50;21.75;;;;;;;;5079825;28;45669;-85
2021/11/24 07:28:49;;;;;;;;;23.67;20.33;;;;;;;;5085755;28;47399;-85
2021/11/24 07:31:14;;;;;;;;;26.00;24.67;;;;;;;;5088604;27;44968;-85
2021/11/24 07:33:40;;;;;;;;;27.00;23.67;;;;;;;;5086597;27;45364;-85
2021/11/24 07:36:05;;;;;;;;;29.25;25.75;;;;;;;;5085130;28;45167;-85
2021/11/24 07:38:31;;;;;;;;;26.33;24.00;;;;;;;;5082776;28;47122;-85
2021/11/24 07:40:56;;;;;;;;;22.25;21.00;;;;;;;;5086094;28;45314;-85
2021/11/24 07:43:22;;;;;;;;;24.33;23.33;;;;;;;;5085663;27;45177;-84
2021/11/24 07:45:47;;;;;;;;;27.25;24.25;;;;;;;;5084516;27;45091;-84
2021/11/24 07:48:14;;;;;;;;;27.00;23.00;;;;;;;;5085796;28;46865;-86
2021/11/24 07:50:39;;;;;;;;;31.00;25.50;;;;;;;;5085163;27;45805;-84
2021/11/24 07:53:04;;;;;;;;;24.50;22.00;;;;;;;;5068184;28;45523;-86
2021/11/24 07:55:29;;;;;;;;;27.33;22.33;;;;;;;;5070718;28;45654;-84
2021/11/24 07:57:54;;;;;;;;;28.67;24.00;;;;;;;;5070948;28;47385;-89
2021/11/24 08:00:21;;;;;;;;;22.25;21.00;;;;;;;;5074474;28;45705;-89
2021/11/24 08:02:55;;;;;;;;;22.00;20.75;;;;;;;;5068118;28;45616;-93
2021/11/24 08:05:21;;;;;;;;;25.00;22.75;;;;;;;;5054296;27;45518;-92
2021/11/24 08:08:06;;;;;;;;;26.00;21.67;;;;;;;;5062566;28;46911;-94
2021/11/24 08:10:35;;;;;;;;;27.25;25.00;;;;;;;;5067818;28;45393;-92
2021/11/24 08:13:04;;;;;;;;;22.25;19.75;;;;;;;;5096595;22;45211;-91
2021/11/24 08:15:41;;;;;;;;;20.50;17.50;;;;;;;;5055253;28;45276;-94
2021/11/24 08:23:52;;;;;;;;;13.75;13.00;;;;;;;;5070877;22;45041;-92
2021/11/24 08:32:16;;;;;;;;;25.75;23.75;;;;;;;;5056410;28;45402;-93
2021/11/24 08:34:43;;;;;;;;;26.00;24.75;;;;;;;;4974652;28;45471;-94
2021/11/24 08:37:09;;;;;;;;;26.00;23.75;;;;;;;;5043553;28;45506;-96
2021/11/24 08:42:36;;;;;;;;;26.75;22.75;;;;;;;;5017105;28;46085;-93
2021/11/24 08:45:01;;;;;;;;;26.75;25.00;;;;;;;;5010792;28;45376;-90
2021/11/24 08:47:33;;;;;;;;;23.67;20.33;;;;;;;;5010329;28;45477;-90
2021/11/24 08:49:59;;;;;;;;;23.25;21.25;;;;;;;;5002035;28;47164;-87
2021/11/24 08:52:25;;;;;;;;;28.00;24.75;;;;;;;;5001591;28;45543;-93
2021/11/24 08:54:50;;;;;;;;;25.00;24.00;;;;;;;;5060110;28;45331;-91
2021/11/24 08:57:15;;;;;;;;;26.33;24.00;;;;;;;;5041839;28;45496;-89
2021/11/24 08:59:41;;;;;;;;;25.67;24.33;;;;;;;;5035516;28;47198;-89
2021/11/24 09:02:07;;;;;;;;;27.50;23.75;;;;;;;;5036863;28;45513;-89
2021/11/24 09:04:32;;;;;;;;;25.75;23.75;;;;;;;;5042903;28;45646;-94
2021/11/24 09:06:58;;;;;;;;;25.00;23.50;;;;;;;;5041483;28;45481;-86
2021/11/24 09:09:23;;;;;;;;;26.75;24.75;;;;;;;;5036305;28;47948;-86
2021/11/24 09:11:48;;;;;;;;;20.00;19.67;;;;;;;;5034063;28;45853;-86
2021/11/24 09:14:13;;;;;;;;;21.00;21.00;;;;;;;;5052633;28;45465;-86
2021/11/24 09:16:38;;;;;;;;;26.00;24.00;;;;;;;;5034761;28;45596;-86
2021/11/24 09:19:04;;;;;;;;;29.00;22.00;;;;;;;;5033648;28;47267;-86
2021/11/24 09:21:29;;;;;;;;;24.33;22.00;;;;;;;;5034529;28;45893;-86
2021/11/24 09:23:59;;;;;;;;;22.67;20.67;;;;;;;;5039629;28;45446;-86
2021/11/24 09:26:38;;;;;;;;;30.00;23.75;;;;;;;;5036480;28;45634;-88
2021/11/24 09:29:03;;;;;;;;;23.25;21.00;;;;;;;;5034360;28;48265;-86
2021/11/24 09:31:29;;;;;;;;;29.25;25.00;;;;;;;;5036654;28;45690;-87
2021/11/24 09:33:54;;;;;;;;;23.67;21.00;;;;;;;;5042955;28;45621;-88
2021/11/24 09:36:19;;;;;;;;;25.33;19.33;;;;;;;;5044539;28;45363;-86
2021/11/24 09:38:44;;;;;;;;;29.00;25.33;;;;;;;;5069701;28;45211;-86
2021/11/24 09:41:11;;;;;;;;;24.33;22.00;;;;;;;;5051606;28;45205;-87
2021/11/24 09:43:38;;;;;;;;;30.25;23.25;;;;;;;;5070041;28;45096;-87
2021/11/24 09:46:04;;;;;;;;;32.25;26.50;;;;;;;;5070012;28;45812;-86
2021/11/24 09:48:29;;;;;;;;;31.50;28.75;;;;;;;;5044194;28;47437;-86
2021/11/24 09:50:55;;;;;;;;;32.00;26.50;;;;;;;;5063137;28;45704;-86
2021/11/24 09:53:21;;;;;;;;;33.75;29.50;;;;;;;;5047486;28;45088;-87
2021/11/24 09:55:47;;;;;;;;;28.00;25.75;;;;;;;;5057511;28;45455;-86
2021/11/24 09:58:16;;;;;;;;;26.00;22.75;;;;;;;;5054929;28;46349;-86
2021/11/24 10:00:42;;;;;;;;;31.50;28.00;;;;;;;;5032429;28;46405;-87
2021/11/24 10:03:07;;;;;;;;;33.50;27.25;;;;;;;;5036174;28;45568;-85
2021/11/24 10:05:33;;;;;;;;;34.75;30.75;;;;;;;;5037192;28;45468;-86
2021/11/24 10:07:58;;;;;;;;;29.75;26.50;;;;;;;;5039035;28;47520;-86
2021/11/24 10:10:25;;;;;;;;;27.25;23.00;;;;;;;;5035691;28;45185;-87
2021/11/24 10:12:50;;;;;;;;;24.50;23.50;;;;;;;;5038111;28;45490;-86
2021/11/24 10:15:36;;;;;;;;;30.33;27.00;;;;;;;;5047979;28;45416;-87
2021/11/24 10:18:21;;;;;;;;;26.75;22.25;;;;;;;;5064374;28;45417;-86
2021/11/24 10:20:54;;;;;;;;;25.25;22.50;;;;;;;;5039632;28;45482;-85
2021/11/24 10:23:33;;;;;;;;;24.25;22.75;;;;;;;;5036450;28;45616;-86
2021/11/24 10:26:16;;;;;;;;;32.00;27.00;;;;;;;;5037729;28;45478;-86
2021/11/24 10:28:48;;;;;;;;;45.75;38.25;;;;;;;;5039349;28;47196;-87
2021/11/24 10:31:27;;;;;;;;;31.50;26.25;;;;;;;;5052762;28;45838;-85
2021/11/24 10:33:52;;;;;;;;;28.25;26.50;;;;;;;;5033539;28;45545;-86
2021/11/24 10:36:18;;;;;;;;;27.00;26.00;;;;;;;;5041024;28;45395;-86
2021/11/24 10:38:44;;;;;;;;;26.75;25.50;;;;;;;;5041267;28;47119;-85
2021/11/24 10:41:10;;;;;;;;;27.50;26.00;;;;;;;;5063212;28;45536;-86
2021/11/24 10:43:43;;;;;;;;;27.75;23.75;;;;;;;;5042899;28;45550;-86
2021/11/24 10:46:11;;;;;;;;;28.50;27.25;;;;;;;;5042638;28;45374;-86
2021/11/24 10:48:36;;;;;;;;;29.75;24.00;;;;;;;;5031725;28;47250;-87
2021/11/24 10:51:21;;;;;;;;;23.50;22.00;;;;;;;;5034693;28;45480;-87
2021/11/24 10:54:03;;;;;;;;;29.00;27.00;;;;;;;;5040993;28;45328;-85
2021/11/24 10:56:28;;;;;;;;;27.50;21.50;;;;;;;;5038721;28;45475;-85
2021/11/24 10:59:13;;;;;;;;;12.00;11.33;;;;;;;;5039904;28;47001;-85
2021/11/24 11:01:38;;;;;;;;;31.00;26.00;;;;;;;;5038925;28;46335;-85
2021/11/24 11:04:08;;;;;;;;;28.67;26.67;;;;;;;;5056104;28;45402;-86
2021/11/24 11:06:33;;;;;;;;;33.50;29.75;;;;;;;;5033696;28;45426;-85
2021/11/24 11:08:59;;;;;;;;;27.50;25.00;;;;;;;;5038103;28;47647;-86
2021/11/24 11:11:31;;;;;;;;;27.50;26.00;;;;;;;;5041152;28;45248;-86
2021/11/24 11:14:12;;;;;;;;;28.25;24.50;;;;;;;;5035026;28;45479;-86
2021/11/24 11:16:56;;;;;;;;;32.00;28.50;;;;;;;;5034747;28;45534;-85
2021/11/24 11:19:41;;;;;;;;;26.00;23.75;;;;;;;;5037185;28;48460;-85
2021/11/24 11:22:07;;;;;;;;;24.50;23.00;;;;;;;;5042532;28;45641;-84
2021/11/24 11:24:32;;;;;;;;;28.00;23.00;;;;;;;;5037950;28;45564;-85
2021/11/24 11:26:58;;;;;;;;;26.75;22.75;;;;;;;;5050293;28;45221;-85
2021/11/24 11:29:24;;;;;;;;;22.33;20.33;;;;;;;;5049123;28;47287;-86
2021/11/24 11:31:50;;;;;;;;;21.75;21.00;;;;;;;;5050277;28;45528;-87
2021/11/24 11:34:15;;;;;;;;;26.75;24.50;;;;;;;;5069777;28;45304;-86
2021/11/24 11:36:43;;;;;;;;;25.00;22.33;;;;;;;;5039694;28;45765;-84
2021/11/24 11:39:09;;;;;;;;;26.75;25.50;;;;;;;;5051012;28;47157;-86
2021/11/24 11:41:36;;;;;;;;;26.50;24.00;;;;;;;;5050274;28;45476;-85
2021/11/24 11:44:02;;;;;;;;;30.75;28.00;;;;;;;;5067898;28;44788;-87
2021/11/24 11:46:33;;;;;;;;;27.50;25.00;;;;;;;;5050553;28;45359;-85
2021/11/24 11:49:06;;;;;;;;;25.75;20.75;;;;;;;;5050167;28;47580;-85
2021/11/24 11:51:33;;;;;;;;;24.00;24.00;;;;;;;;5049697;28;45389;-84
2021/11/24 11:53:58;;;;;;;;;31.50;25.25;;;;;;;;5048893;28;45424;-85
2021/11/24 11:56:31;;;;;;;;;26.00;25.25;;;;;;;;5050493;28;45290;-85
2021/11/24 11:59:09;;;;;;;;;27.50;24.50;;;;;;;;5055279;28;46335;-86
2021/11/24 12:01:36;;;;;;;;;26.00;24.50;;;;;;;;5037259;28;45656;-84
2021/11/24 12:04:21;;;;;;;;;21.50;20.50;;;;;;;;5037698;28;45664;-84
2021/11/24 12:06:46;;;;;;;;;24.25;23.00;;;;;;;;5035899;28;45393;-84
2021/11/24 12:09:15;;;;;;;;;29.33;26.00;;;;;;;;5036942;28;47187;-86
2021/11/24 12:11:58;;;;;;;;;33.00;28.75;;;;;;;;5038417;28;45918;-87
2021/11/24 12:14:42;;;;;;;;;24.75;22.50;;;;;;;;5039002;28;45445;-86
2021/11/24 12:17:34;;;;;;;;;25.50;23.00;;;;;;;;5056975;28;45653;-86
2021/11/24 12:20:01;;;;;;;;;25.50;24.75;;;;;;;;5018979;28;45513;-86
2021/11/24 12:22:49;;;;;;;;;29.50;25.25;;;;;;;;5037668;28;46209;-84
2021/11/24 12:33:12;;;;;;;;;26.50;24.00;;;;;;;;5055961;28;46273;-86
2021/11/24 12:35:40;;;;;;;;;26.50;24.00;;;;;;;;5037152;28;45443;-88
2021/11/24 12:38:07;;;;;;;;;28.00;25.00;;;;;;;;5039844;28;45561;-87
2021/11/24 12:40:33;;;;;;;;;22.00;19.25;;;;;;;;5038812;28;47471;-87
2021/11/24 12:42:59;;;;;;;;;27.00;21.00;;;;;;;;5038627;28;45544;-85
2021/11/24 12:45:24;;;;;;;;;23.25;22.25;;;;;;;;5038945;28;45369;-89
2021/11/24 12:48:00;;;;;;;;;24.25;23.00;;;;;;;;5057400;28;45308;-86
2021/11/24 12:50:27;;;;;;;;;26.75;24.50;;;;;;;;5037630;28;47715;-88
2021/11/24 12:52:54;;;;;;;;;27.75;23.25;;;;;;;;5037733;28;45889;-87
2021/11/24 12:55:19;;;;;;;;;23.25;21.75;;;;;;;;5036917;28;45414;-85
2021/11/24 12:57:45;;;;;;;;;26.67;23.67;;;;;;;;5037672;28;45710;-88
2021/11/24 13:00:26;;;;;;;;;24.67;21.33;;;;;;;;5038675;28;48037;-87
2021/11/24 13:02:51;;;;;;;;;24.50;24.25;;;;;;;;5038239;28;46016;-88
2021/11/24 13:05:17;;;;;;;;;21.33;20.67;;;;;;;;5055677;28;45750;-88
2021/11/24 13:07:49;;;;;;;;;26.25;24.50;;;;;;;;5037710;28;45252;-87
2021/11/24 13:10:16;;;;;;;;;21.75;20.75;;;;;;;;5035504;28;48682;-84
2021/11/24 13:12:41;;;;;;;;;24.00;22.75;;;;;;;;5035566;28;46150;-89
2021/11/24 13:15:08;;;;;;;;;23.00;22.00;;;;;;;;5051475;28;45195;-85
2021/11/24 13:17:35;;;;;;;;;24.00;23.25;;;;;;;;5051996;28;45063;-87
2021/11/24 13:20:09;;;;;;;;;22.75;21.00;;;;;;;;5036958;28;47518;-87
2021/11/24 13:22:45;;;;;;;;;23.75;22.75;;;;;;;;5036244;28;45832;-88
2021/11/24 13:25:10;;;;;;;;;26.25;23.25;;;;;;;;5054292;28;45909;-88
2021/11/24 13:27:37;;;;;;;;;21.25;21.00;;;;;;;;5035062;28;45633;-88
2021/11/24 13:30:03;;;;;;;;;28.50;25.50;;;;;;;;5037311;28;47258;-86
2021/11/24 13:32:28;;;;;;;;;28.00;24.50;;;;;;;;5055174;28;46027;-87
2021/11/24 13:34:56;;;;;;;;;23.33;22.33;;;;;;;;5064318;28;45142;-88
2021/11/24 13:37:26;;;;;;;;;22.25;20.75;;;;;;;;5068009;28;45365;-86
2021/11/24 13:39:52;;;;;;;;;20.25;19.75;;;;;;;;5046197;28;47200;-87
2021/11/24 13:42:17;;;;;;;;;24.75;23.25;;;;;;;;5037365;28;45526;-86
2021/11/24 13:44:45;;;;;;;;;24.75;20.75;;;;;;;;5036481;28;45511;-85
2021/11/24 13:47:10;;;;;;;;;23.25;22.00;;;;;;;;5052407;28;45521;-85
2021/11/24 13:49:41;;;;;;;;;26.67;23.33;;;;;;;;5034254;28;46149;-86
2021/11/24 13:52:08;;;;;;;;;21.50;19.75;;;;;;;;5033654;28;45872;-84
2021/11/24 13:54:39;;;;;;;;;21.25;20.50;;;;;;;;5053523;28;45481;-85
2021/11/24 13:57:05;;;;;;;;;25.25;24.50;;;;;;;;5035562;28;45621;-87
2021/11/24 13:59:32;;;;;;;;;26.50;25.00;;;;;;;;5036166;28;47684;-84
2021/11/24 14:02:03;;;;;;;;;21.75;21.00;;;;;;;;5034373;28;45542;-86
2021/11/24 14:04:48;;;;;;;;;27.75;24.50;;;;;;;;5034747;28;45475;-85
2021/11/24 14:07:15;;;;;;;;;19.75;19.50;;;;;;;;5035418;28;45390;-84
2021/11/24 14:09:51;;;;;;;;;24.50;23.25;;;;;;;;5035371;28;48108;-85
2021/11/24 14:12:20;;;;;;;;;25.00;23.00;;;;;;;;5055129;28;45190;-84
2021/11/24 14:14:52;;;;;;;;;24.50;22.00;;;;;;;;5034564;28;45857;-87
2021/11/24 14:17:26;;;;;;;;;22.50;20.50;;;;;;;;5034114;28;45482;-84
2021/11/24 14:19:52;;;;;;;;;22.25;21.50;;;;;;;;5032413;28;46829;-86
2021/11/24 14:22:17;;;;;;;;;23.25;22.00;;;;;;;;5034766;28;45979;-86
2021/11/24 14:24:43;;;;;;;;;24.50;21.50;;;;;;;;5034827;28;45707;-85
2021/11/24 14:27:08;;;;;;;;;18.00;17.67;;;;;;;;5037790;28;45612;-84
2021/11/24 14:29:34;;;;;;;;;18.00;18.00;;;;;;;;5037698;28;47319;-85
2021/11/24 14:32:00;;;;;;;;;20.50;19.50;;;;;;;;5041371;28;45781;-86
2021/11/24 14:34:26;;;;;;;;;20.00;18.75;;;;;;;;5034842;28;45671;-87
2021/11/24 14:36:52;;;;;;;;;21.00;20.00;;;;;;;;5035335;28;45449;-87
2021/11/24 14:39:18;;;;;;;;;21.75;19.00;;;;;;;;5032344;28;48176;-85